createdAt,value
2018-10-05T00:01:00.005Z,99.90
2018-10-05T00:03:29.331Z,99.90
2018-10-05T00:05:57.657Z,99.90
2018-10-05T00:08:26.317Z,99.90
2018-10-05T00:10:54.569Z,99.90
2018-10-05T00:13:22.825Z,99.90
2018-10-05T00:15:51.971Z,99.90
2018-10-05T00:18:21.238Z,99.90
2018-10-05T00:20:49.493Z,99.90
2018-10-05T00:23:17.771Z,99.90
2018-10-05T00:25:46.817Z,99.90
2018-10-05T00:28:15.154Z,99.90
2018-10-05T00:30:43.450Z,99.90
2018-10-05T00:33:11.738Z,99.90
2018-10-05T00:35:40.584Z,99.90
2018-10-05T00:38:08.889Z,99.90
2018-10-05T00:40:37.570Z,99.90
2018-10-05T00:43:05.941Z,99.90
2018-10-05T00:45:35.039Z,99.90
2018-10-05T00:48:03.338Z,99.90
2018-10-05T00:50:31.606Z,99.90
2018-10-05T00:53:00.405Z,99.90
2018-10-05T00:55:28.658Z,99.90
2018-10-05T00:57:56.952Z,99.90
2018-10-05T01:00:25.301Z,99.90
2018-10-05T01:02:54.062Z,99.90
2018-10-05T01:05:22.290Z,99.90
2018-10-05T01:07:51.429Z,99.90
2018-10-05T01:10:19.750Z,99.90
2018-10-05T01:12:49.143Z,99.90
2018-10-05T01:15:17.938Z,99.90
2018-10-05T01:17:46.210Z,99.90
2018-10-05T01:20:14.482Z,99.90
2018-10-05T01:22:43.169Z,99.90
2018-10-05T01:25:11.426Z,99.90
2018-10-05T01:27:39.784Z,99.90
2018-10-05T01:30:10.899Z,99.90
2018-10-05T01:32:40.957Z,99.90
2018-10-05T01:35:09.328Z,99.90
2018-10-05T01:37:37.946Z,99.90
2018-10-05T01:40:06.837Z,99.90
2018-10-05T01:42:35.570Z,99.90
2018-10-05T01:45:03.875Z,99.90
2018-10-05T01:47:32.179Z,99.90
2018-10-05T01:50:00.450Z,99.90
2018-10-05T01:52:28.731Z,99.90
2018-10-05T01:54:57.079Z,99.90
2018-10-05T01:57:25.386Z,99.90
2018-10-05T01:59:53.656Z,99.90
2018-10-05T02:02:22.966Z,99.90
2018-10-05T02:04:51.593Z,99.90
2018-10-05T02:07:20.396Z,99.90
2018-10-05T02:09:48.673Z,99.90
2018-10-05T02:12:16.961Z,99.90
2018-10-05T02:14:45.267Z,99.90
2018-10-05T02:17:14.122Z,99.90
2018-10-05T02:19:42.393Z,99.90
2018-10-05T02:22:10.668Z,99.90
2018-10-05T02:24:40.258Z,99.90
2018-10-05T02:27:08.503Z,99.90
2018-10-05T02:29:36.774Z,99.90
2018-10-05T02:32:05.514Z,99.90
2018-10-05T02:34:33.797Z,99.90
2018-10-05T02:37:02.078Z,99.90
2018-10-05T02:39:31.107Z,99.90
2018-10-05T02:41:59.997Z,99.90
2018-10-05T02:44:28.231Z,99.90
2018-10-05T02:46:56.485Z,99.90
2018-10-05T02:52:03.094Z,99.90
2018-10-05T02:54:31.370Z,99.90
2018-10-05T02:56:59.654Z,99.90
2018-10-05T02:59:27.945Z,99.90
2018-10-05T03:02:07.973Z,99.90
2018-10-05T03:04:36.252Z,99.90
2018-10-05T03:07:04.526Z,99.90
2018-10-05T03:09:33.102Z,99.90
2018-10-05T03:12:01.351Z,99.90
2018-10-05T03:14:29.598Z,99.90
2018-10-05T03:16:58.217Z,99.90
2018-10-05T03:19:26.464Z,99.90
2018-10-05T03:21:54.718Z,99.90
2018-10-05T03:24:22.997Z,99.90
2018-10-05T03:26:51.300Z,99.90
2018-10-05T03:29:19.622Z,99.90
2018-10-05T03:31:48.071Z,99.90
2018-10-05T03:34:16.399Z,99.90
2018-10-05T03:36:45.291Z,99.90
2018-10-05T03:39:13.878Z,99.90
2018-10-05T03:41:42.638Z,99.90
2018-10-05T03:44:10.919Z,99.90
2018-10-05T03:46:39.846Z,99.90
2018-10-05T03:49:08.742Z,99.90
2018-10-05T03:51:37.018Z,99.90
2018-10-05T03:54:05.277Z,99.90
2018-10-05T03:56:33.558Z,99.90
2018-10-05T03:59:01.836Z,99.90
2018-10-05T04:01:30.513Z,99.90
2018-10-05T04:03:59.194Z,99.90
2018-10-05T04:06:27.469Z,99.90
2018-10-05T04:08:56.274Z,99.90
2018-10-05T04:11:24.529Z,99.90
2018-10-05T04:13:53.199Z,99.90
2018-10-05T04:16:21.723Z,99.90
2018-10-05T04:18:49.986Z,99.90
2018-10-05T04:21:18.237Z,99.90
2018-10-05T04:23:46.568Z,99.90
2018-10-05T04:26:14.826Z,99.90
2018-10-05T04:28:43.837Z,99.90
2018-10-05T04:31:12.353Z,99.90
2018-10-05T04:33:40.914Z,99.90
2018-10-05T04:36:09.165Z,99.90
2018-10-05T04:38:37.421Z,99.90
2018-10-05T04:41:06.163Z,99.90
2018-10-05T04:43:34.463Z,99.90
2018-10-05T04:46:03.471Z,99.90
2018-10-05T04:48:31.762Z,99.90
2018-10-05T04:50:59.998Z,99.90
2018-10-05T04:53:28.396Z,99.90
2018-10-05T04:55:56.682Z,99.90
2018-10-05T04:58:25.079Z,99.90
2018-10-05T05:00:53.354Z,99.90
2018-10-05T05:03:22.179Z,99.90
2018-10-05T05:05:50.571Z,99.90
2018-10-05T05:08:19.384Z,99.90
2018-10-05T05:10:47.781Z,99.90
2018-10-05T05:13:16.039Z,99.90
2018-10-05T05:15:45.134Z,99.90
2018-10-05T05:18:13.389Z,99.90
2018-10-05T05:20:42.566Z,99.90
2018-10-05T05:23:12.141Z,99.90
2018-10-05T05:25:40.481Z,99.90
2018-10-05T05:28:08.737Z,99.90
2018-10-05T05:30:37.320Z,99.90
2018-10-05T05:33:05.586Z,99.90
2018-10-05T05:35:33.865Z,99.90
2018-10-05T05:38:02.205Z,99.90
2018-10-05T05:40:30.451Z,99.90
2018-10-05T05:42:58.813Z,99.90
2018-10-05T05:45:28.041Z,99.90
2018-10-05T05:47:56.371Z,99.90
2018-10-05T05:50:24.648Z,99.90
2018-10-05T05:52:52.930Z,99.90
2018-10-05T05:55:21.219Z,99.90
2018-10-05T05:57:49.548Z,99.90
2018-10-05T06:00:17.858Z,99.90
2018-10-05T06:02:46.752Z,99.90
2018-10-05T06:05:15.033Z,99.90
2018-10-05T06:07:44.418Z,99.90
2018-10-05T06:10:13.393Z,99.90
2018-10-05T06:12:42.518Z,99.90
2018-10-05T06:15:11.332Z,99.90
2018-10-05T06:17:39.638Z,99.90
2018-10-05T06:20:08.485Z,99.90
2018-10-05T06:22:37.527Z,99.90
2018-10-05T06:25:06.018Z,99.90
2018-10-05T06:27:34.291Z,99.90
2018-10-05T06:30:02.653Z,99.90
2018-10-05T06:32:30.922Z,99.90
2018-10-05T06:34:59.278Z,99.90
2018-10-05T06:37:29.714Z,99.90
2018-10-05T06:39:58.594Z,99.90
2018-10-05T06:42:27.329Z,99.90
2018-10-05T06:44:55.549Z,99.90
2018-10-05T06:47:24.546Z,99.90
2018-10-05T06:49:52.793Z,99.90
2018-10-05T06:52:21.068Z,99.90
2018-10-05T06:54:49.361Z,99.90
2018-10-05T06:57:17.953Z,99.90
2018-10-05T06:59:46.314Z,99.90
2018-10-05T07:02:14.894Z,99.90
2018-10-05T07:04:43.671Z,99.90
2018-10-05T07:07:12.748Z,99.90
2018-10-05T07:09:41.042Z,99.90
2018-10-05T07:12:09.330Z,99.90
2018-10-05T07:14:37.942Z,99.90
2018-10-05T07:17:06.783Z,99.90
2018-10-05T07:19:35.041Z,99.90
2018-10-05T07:22:03.407Z,99.90
2018-10-05T07:24:31.673Z,99.90
2018-10-05T07:27:00.143Z,99.90
2018-10-05T07:29:28.418Z,99.90
2018-10-05T07:31:56.689Z,99.90
2018-10-05T07:34:25.033Z,99.90
2018-10-05T07:36:53.364Z,99.90
2018-10-05T07:39:22.937Z,99.90
2018-10-05T07:41:53.664Z,99.90
2018-10-05T07:44:21.959Z,99.90
2018-10-05T07:48:15.329Z,99.90
2018-10-05T07:50:44.343Z,99.90
2018-10-05T07:53:13.230Z,99.90
2018-10-05T07:55:41.494Z,99.90
2018-10-05T07:58:09.774Z,99.90
2018-10-05T08:00:38.078Z,99.90
2018-10-05T08:03:07.290Z,99.90
2018-10-05T08:05:36.150Z,99.90
2018-10-05T08:08:04.960Z,99.90
2018-10-05T08:10:33.258Z,99.90
2018-10-05T08:13:01.538Z,99.90
2018-10-05T08:15:30.374Z,99.90
2018-10-05T08:17:58.646Z,99.90
2018-10-05T08:20:26.919Z,99.90
2018-10-05T08:22:55.223Z,99.90
2018-10-05T08:25:23.527Z,99.90
2018-10-05T08:27:51.958Z,99.90
2018-10-05T08:30:20.470Z,99.90
2018-10-05T08:32:48.748Z,99.90
2018-10-05T08:35:17.055Z,99.90
2018-10-05T08:37:45.358Z,99.90
2018-10-05T08:40:13.731Z,99.90
2018-10-05T08:42:42.374Z,99.90
2018-10-05T08:45:11.371Z,99.90
2018-10-05T08:47:39.638Z,99.90
2018-10-05T08:50:08.266Z,99.90
2018-10-05T08:52:36.517Z,99.90
2018-10-05T08:55:04.765Z,99.90
2018-10-05T08:57:33.054Z,99.90
2018-10-05T09:00:01.619Z,99.80
2018-10-05T09:02:30.278Z,99.00
2018-10-05T09:04:58.541Z,99.50
2018-10-05T09:07:27.157Z,98.50
2018-10-05T09:09:55.410Z,98.40
2018-10-05T09:12:23.695Z,98.00
2018-10-05T09:14:52.031Z,97.40
2018-10-05T09:17:21.089Z,96.60
2018-10-05T09:19:50.188Z,95.50
2018-10-05T09:22:18.435Z,93.80
2018-10-05T09:24:48.210Z,93.30
2018-10-05T09:27:16.503Z,91.80
2018-10-05T09:29:44.825Z,92.80
2018-10-05T09:32:13.473Z,90.90
2018-10-05T09:34:41.734Z,90.40
2018-10-05T09:37:10.051Z,89.00
2018-10-05T09:39:38.512Z,86.90
2018-10-05T09:42:07.330Z,83.30
2018-10-05T09:44:35.654Z,82.60
2018-10-05T09:47:04.410Z,82.90
2018-10-05T09:49:33.614Z,81.20
2018-10-05T09:52:01.940Z,81.10
2018-10-05T09:54:30.179Z,77.80
2018-10-05T09:56:58.471Z,71.80
2018-10-05T09:59:27.222Z,72.20
2018-10-05T10:02:02.114Z,70.80
2018-10-05T10:04:30.935Z,67.20
2018-10-05T10:06:59.219Z,66.60
2018-10-05T10:09:27.714Z,64.90
2018-10-05T10:11:56.005Z,65.40
2018-10-05T10:14:24.262Z,66.50
2018-10-05T10:16:52.822Z,66.60
2018-10-05T10:19:21.073Z,65.50
2018-10-05T10:21:50.453Z,64.30
2018-10-05T10:24:18.717Z,64.30
2018-10-05T10:26:47.130Z,61.80
2018-10-05T10:29:15.573Z,61.40
2018-10-05T10:31:43.752Z,59.30
2018-10-05T10:34:12.078Z,58.80
2018-10-05T10:36:40.833Z,59.60
2018-10-05T10:39:09.099Z,63.40
2018-10-05T10:41:37.373Z,60.00
2018-10-05T10:44:05.806Z,62.90
2018-10-05T10:46:34.745Z,64.80
2018-10-05T10:49:03.029Z,66.20
2018-10-05T10:51:31.301Z,67.20
2018-10-05T10:53:59.636Z,70.70
2018-10-05T10:56:27.884Z,71.70
2018-10-05T10:58:56.240Z,72.90
2018-10-05T11:01:24.521Z,72.10
2018-10-05T11:03:53.274Z,74.80
2018-10-05T11:06:21.543Z,76.80
2018-10-05T11:08:50.214Z,74.40
2018-10-05T11:11:18.498Z,73.50
2018-10-05T11:13:47.154Z,74.40
2018-10-05T11:16:17.862Z,75.30
2018-10-05T11:18:46.116Z,76.50
2018-10-05T11:21:14.398Z,77.10
2018-10-05T11:23:42.685Z,77.00
2018-10-05T11:26:10.966Z,79.00
2018-10-05T11:28:39.950Z,77.30
2018-10-05T11:31:08.269Z,79.80
2018-10-05T11:33:37.371Z,79.10
2018-10-05T11:36:06.525Z,77.30
2018-10-05T11:38:34.754Z,79.40
2018-10-05T11:41:03.174Z,77.80
2018-10-05T11:43:31.613Z,77.80
2018-10-05T11:46:00.354Z,78.40
2018-10-05T11:48:28.626Z,79.60
2018-10-05T11:50:56.904Z,78.80
2018-10-05T11:53:25.206Z,78.10
2018-10-05T11:55:54.502Z,79.10
2018-10-05T11:58:22.984Z,80.00
2018-10-05T12:00:51.182Z,79.10
2018-10-05T12:03:20.241Z,78.00
2018-10-05T12:05:48.529Z,78.10
2018-10-05T12:08:17.417Z,77.40
2018-10-05T12:10:45.697Z,78.70
2018-10-05T12:13:13.996Z,81.30
2018-10-05T12:15:42.860Z,78.30
2018-10-05T12:18:11.184Z,81.00
2018-10-05T12:20:39.586Z,79.60
2018-10-05T12:23:08.630Z,78.40
2018-10-05T12:25:37.207Z,79.00
2018-10-05T12:28:05.498Z,80.00
2018-10-05T12:30:33.866Z,80.50
2018-10-05T12:33:02.538Z,79.40
2018-10-05T12:35:30.870Z,78.20
2018-10-05T12:37:59.174Z,78.10
2018-10-05T12:40:27.491Z,79.30
2018-10-05T12:42:55.771Z,78.90
2018-10-05T12:45:24.725Z,78.30
2018-10-05T12:47:52.977Z,77.40
2018-10-05T12:50:21.641Z,77.50
2018-10-05T12:55:15.512Z,77.10
2018-10-05T12:57:43.775Z,78.80
2018-10-05T13:00:12.059Z,78.20
2018-10-05T13:02:41.046Z,80.30
2018-10-05T13:05:09.329Z,78.40
2018-10-05T13:07:38.081Z,77.10
2018-10-05T13:10:06.872Z,77.30
2018-10-05T13:12:35.137Z,78.40
2018-10-05T13:15:05.470Z,75.80
2018-10-05T13:17:33.913Z,74.50
2018-10-05T13:20:02.174Z,73.90
2018-10-05T13:22:30.457Z,72.70
2018-10-05T13:24:58.811Z,72.50
2018-10-05T13:27:27.090Z,71.70
2018-10-05T13:29:55.551Z,70.90
2018-10-05T13:32:24.579Z,71.00
2018-10-05T13:34:52.855Z,68.00
2018-10-05T13:37:21.202Z,69.00
2018-10-05T13:39:49.436Z,68.50
2018-10-05T13:42:17.708Z,67.20
2018-10-05T13:44:46.069Z,67.20
2018-10-05T13:47:14.895Z,67.20
2018-10-05T13:49:43.181Z,65.90
2018-10-05T13:52:11.466Z,67.00
2018-10-05T13:54:40.803Z,67.50
2018-10-05T13:57:09.077Z,67.20
2018-10-05T13:59:38.253Z,69.30
2018-10-05T14:02:07.365Z,69.90
2018-10-05T14:04:36.311Z,70.20
2018-10-05T14:07:04.678Z,71.70
2018-10-05T14:09:33.402Z,71.90
2018-10-05T14:12:02.001Z,73.80
2018-10-05T14:14:30.288Z,73.10
2018-10-05T14:16:59.039Z,73.60
2018-10-05T14:19:27.333Z,74.40
2018-10-05T14:21:55.678Z,74.60
2018-10-05T14:24:24.004Z,75.70
2018-10-05T14:26:52.651Z,76.50
2018-10-05T14:29:20.971Z,75.20
2018-10-05T14:31:49.249Z,75.80
2018-10-05T14:34:17.724Z,76.10
2018-10-05T14:36:46.006Z,76.70
2018-10-05T14:39:14.341Z,77.50
2018-10-05T14:41:42.694Z,77.80
2018-10-05T14:44:10.927Z,78.70
2018-10-05T14:46:39.942Z,79.00
2018-10-05T14:49:08.813Z,79.30
2018-10-05T14:51:37.407Z,79.00
2018-10-05T14:54:06.251Z,79.00
2018-10-05T14:56:34.966Z,79.90
2018-10-05T14:59:03.677Z,79.20
2018-10-05T15:01:32.048Z,79.60
2018-10-05T15:04:00.862Z,80.50
2018-10-05T15:06:29.152Z,79.90
2018-10-05T15:08:57.788Z,79.20
2018-10-05T15:11:26.566Z,80.50
2018-10-05T15:13:54.898Z,80.90
2018-10-05T15:16:23.614Z,80.10
2018-10-05T15:18:52.514Z,80.20
2018-10-05T15:21:20.914Z,81.10
2018-10-05T15:23:49.178Z,81.80
2018-10-05T15:26:17.475Z,83.50
2018-10-05T15:28:46.554Z,84.30
2018-10-05T15:31:14.935Z,83.70
2018-10-05T15:33:43.220Z,83.80
2018-10-05T15:36:11.551Z,84.30
2018-10-05T15:38:39.923Z,86.20
2018-10-05T15:41:08.934Z,84.90
2018-10-05T15:43:37.226Z,85.80
2018-10-05T15:46:08.270Z,86.20
2018-10-05T15:48:36.691Z,86.60
2018-10-05T15:51:05.430Z,87.00
2018-10-05T15:53:34.126Z,87.10
2018-10-05T15:56:03.296Z,86.70
2018-10-05T15:58:31.569Z,87.00
2018-10-05T16:00:59.866Z,87.00
2018-10-05T16:03:28.466Z,87.30
2018-10-05T16:05:56.785Z,88.10
2018-10-05T16:08:25.417Z,88.50
2018-10-05T16:10:54.405Z,88.70
2018-10-05T16:13:22.782Z,89.20
2018-10-05T16:15:51.331Z,89.80
2018-10-05T16:18:19.706Z,90.50
2018-10-05T16:20:47.990Z,90.20
2018-10-05T16:23:16.606Z,90.60
2018-10-05T16:25:44.880Z,91.40
2018-10-05T16:28:13.158Z,91.30
2018-10-05T16:30:41.507Z,92.30
2018-10-05T16:33:09.838Z,91.70
2018-10-05T16:35:38.306Z,92.60
2018-10-05T16:38:07.185Z,92.70
2018-10-05T16:40:36.461Z,92.50
2018-10-05T16:43:05.267Z,93.40
2018-10-05T16:45:34.125Z,93.20
2018-10-05T16:48:02.438Z,93.90
2018-10-05T16:50:30.739Z,93.30
2018-10-05T16:52:59.087Z,93.50
2018-10-05T16:55:27.612Z,93.60
2018-10-05T16:57:59.103Z,94.60
2018-10-05T17:00:28.062Z,94.60
2018-10-05T17:02:56.745Z,94.50
2018-10-05T17:05:25.046Z,94.70
2018-10-05T17:07:53.942Z,95.10
2018-10-05T17:10:22.672Z,95.40
2018-10-05T17:12:51.014Z,95.60
2018-10-05T17:15:19.812Z,95.80
2018-10-05T17:17:48.168Z,95.90
2018-10-05T17:20:16.550Z,96.60
2018-10-05T17:22:44.850Z,97.40
2018-10-05T17:25:13.141Z,99.00
2018-10-05T17:27:41.779Z,99.20
2018-10-05T17:30:10.718Z,99.00
2018-10-05T17:32:39.401Z,99.80
2018-10-05T17:35:07.865Z,99.90
2018-10-05T17:37:36.187Z,99.90
2018-10-05T17:40:05.046Z,99.80
2018-10-05T17:42:33.436Z,99.90
2018-10-05T17:45:01.837Z,99.90
2018-10-05T17:47:30.950Z,99.90
2018-10-05T17:49:59.210Z,99.90
2018-10-05T17:52:27.613Z,99.90
2018-10-05T17:54:56.221Z,99.90
2018-10-05T17:57:24.941Z,99.90
2018-10-05T17:59:53.271Z,99.90
2018-10-05T18:02:21.846Z,99.90
2018-10-05T18:04:50.244Z,99.90
2018-10-05T18:07:19.214Z,99.90
2018-10-05T18:09:47.513Z,99.90
2018-10-05T18:12:16.534Z,99.90
2018-10-05T18:14:45.726Z,99.90
2018-10-05T18:17:14.266Z,99.90
2018-10-05T18:19:42.547Z,99.90
2018-10-05T18:22:10.967Z,99.90
2018-10-05T18:24:39.610Z,99.90
2018-10-05T18:27:08.853Z,99.90
2018-10-05T18:29:37.173Z,99.90
2018-10-05T18:32:05.798Z,99.90
2018-10-05T18:34:34.122Z,99.90
2018-10-05T18:37:02.417Z,99.90
2018-10-05T18:39:30.737Z,99.90
2018-10-05T18:41:59.011Z,99.90
2018-10-05T18:46:58.943Z,99.90
2018-10-05T18:49:27.619Z,99.90
2018-10-05T18:51:55.938Z,99.90
2018-10-05T18:54:24.249Z,99.90
2018-10-05T18:57:03.805Z,99.90
2018-10-05T18:59:32.274Z,99.90
2018-10-05T19:02:01.549Z,99.90
2018-10-05T19:04:30.429Z,99.90
2018-10-05T19:06:59.136Z,99.90
2018-10-05T19:09:27.571Z,99.90
2018-10-05T19:11:56.274Z,99.90
2018-10-05T19:14:24.634Z,99.90
2018-10-05T19:16:53.275Z,99.90
2018-10-05T19:19:21.579Z,99.90
2018-10-05T19:21:50.349Z,99.90
2018-10-05T19:24:18.577Z,99.90
2018-10-05T19:26:48.352Z,99.90
2018-10-05T19:29:16.998Z,99.90
2018-10-05T19:31:45.674Z,99.90
2018-10-05T19:34:14.477Z,99.90
2018-10-05T19:36:42.835Z,99.90
2018-10-05T19:39:11.796Z,99.90
2018-10-05T19:41:40.759Z,99.90
2018-10-05T19:44:09.449Z,99.90
2018-10-05T19:46:38.357Z,99.90
2018-10-05T19:49:10.578Z,99.90
2018-10-05T19:51:38.898Z,99.90
2018-10-05T19:54:07.207Z,99.90
2018-10-05T19:56:35.518Z,99.90
2018-10-05T19:59:03.918Z,99.90
2018-10-05T20:01:32.722Z,99.90
2018-10-05T20:04:01.472Z,99.90
2018-10-05T20:06:29.785Z,99.90
2018-10-05T20:08:58.817Z,99.90
2018-10-05T20:11:27.602Z,99.90
2018-10-05T20:13:55.879Z,99.90
2018-10-05T20:16:24.513Z,99.90
2018-10-05T20:18:52.790Z,99.90
2018-10-05T20:21:21.077Z,99.90
2018-10-05T20:23:49.605Z,99.90
2018-10-05T20:26:17.921Z,99.90
2018-10-05T20:28:46.189Z,99.90
2018-10-05T20:31:14.725Z,99.90
2018-10-05T20:33:43.062Z,99.90
2018-10-05T20:36:11.478Z,99.90
2018-10-05T20:38:40.158Z,99.90
2018-10-05T20:41:08.408Z,99.90
2018-10-05T20:43:36.730Z,99.90
2018-10-05T20:46:05.718Z,99.90
2018-10-05T20:48:33.981Z,99.90
2018-10-05T20:51:02.993Z,99.90
2018-10-05T20:53:31.313Z,99.90
2018-10-05T20:55:59.633Z,99.90
2018-10-05T20:58:27.931Z,99.90
2018-10-05T21:00:56.234Z,99.90
2018-10-05T21:03:24.866Z,99.90
2018-10-05T21:05:53.402Z,99.90
2018-10-05T21:08:22.197Z,99.90
2018-10-05T21:10:51.083Z,99.90
2018-10-05T21:13:19.807Z,99.90
2018-10-05T21:15:48.527Z,99.90
2018-10-05T21:18:17.426Z,99.90
2018-10-05T21:20:45.730Z,99.90
2018-10-05T21:23:14.098Z,99.90
2018-10-05T21:25:42.452Z,99.90
2018-10-05T21:28:10.749Z,99.90
2018-10-05T21:30:39.518Z,99.90
2018-10-05T21:33:07.854Z,99.90
2018-10-05T21:35:36.118Z,99.90
2018-10-05T21:38:04.416Z,99.90
2018-10-05T21:40:33.207Z,99.90
2018-10-05T21:43:01.538Z,99.90
2018-10-05T21:45:30.226Z,99.90
2018-10-05T21:47:58.801Z,99.90
2018-10-05T21:50:27.078Z,99.90
2018-10-05T21:52:55.440Z,99.90
2018-10-05T21:55:23.982Z,99.90
2018-10-05T21:57:52.262Z,99.90
2018-10-05T22:00:20.971Z,99.90
2018-10-05T22:02:49.853Z,99.90
2018-10-05T22:05:18.141Z,99.90
2018-10-05T22:07:46.950Z,99.90
2018-10-05T22:10:15.576Z,99.90
2018-10-05T22:12:44.377Z,99.90
2018-10-05T22:15:12.908Z,99.90
2018-10-05T22:17:41.189Z,99.90
2018-10-05T22:20:09.466Z,99.90
2018-10-05T22:22:37.762Z,99.90
2018-10-05T22:25:06.116Z,99.90
2018-10-05T22:27:34.909Z,99.90
2018-10-05T22:30:03.510Z,99.90
2018-10-05T22:32:31.779Z,99.90
2018-10-05T22:35:00.116Z,99.90
2018-10-05T22:37:28.388Z,99.90
2018-10-05T22:39:56.739Z,99.90
2018-10-05T22:42:25.075Z,99.90
2018-10-05T22:44:53.365Z,99.90
2018-10-05T22:47:22.094Z,99.90
2018-10-05T22:49:50.346Z,99.90
2018-10-05T22:52:18.622Z,99.90
2018-10-05T22:54:46.903Z,99.90
2018-10-05T22:57:15.176Z,99.90
2018-10-05T22:59:43.942Z,99.90
2018-10-05T23:02:12.588Z,99.90
2018-10-05T23:04:41.150Z,99.90
2018-10-05T23:07:10.265Z,99.90
2018-10-05T23:09:38.561Z,99.90
2018-10-05T23:12:07.546Z,99.90
2018-10-05T23:14:35.826Z,99.90
2018-10-05T23:17:04.460Z,99.90
2018-10-05T23:19:32.735Z,99.90
2018-10-05T23:22:01.287Z,99.90
2018-10-05T23:24:30.054Z,99.90
2018-10-05T23:26:58.305Z,99.90
2018-10-05T23:29:26.629Z,99.90
2018-10-05T23:31:55.239Z,99.90
2018-10-05T23:34:23.534Z,99.90
2018-10-05T23:36:51.810Z,99.90
2018-10-05T23:39:20.126Z,99.90
2018-10-05T23:41:48.404Z,99.90
2018-10-05T23:44:16.738Z,99.90
2018-10-05T23:46:45.714Z,99.90
2018-10-05T23:49:13.970Z,99.90
2018-10-05T23:51:42.530Z,99.90
2018-10-05T23:54:10.807Z,99.90
2018-10-05T23:56:39.088Z,99.90
2018-10-05T23:59:07.630Z,99.90
